Latest Weather Observations for Hopetoun North

IDW60801

Issued at 4:05 pm WST Sunday 21 September 2014 (issued every 30 minutes, with the page automatically refreshed every 10 minutes)

About weather observations | Map of weather stations | Latest weather observations for WA | Other Formats
Station Details ID: 009961 Name: HOPETOUN NORTH Lat: -33.93 Lon: 120.13 Height: 26.0 m
Data from the previous 72 hours. | See also: Recent months at Hopetoun North
Date/Time
WST
Temp
°C
App
Temp
°C
Dew
Point
Rel
Hum
%
Delta-T
°C
Wind Press
QNH
hPa
Press
MSL
hPa
Rain
since 9 am
mm
Dir
 
Spd
km/h
Gust
km/h
Spd
kts
Gust
kts
21/04:00pm 30.2 20.4 3.3 18 13.7 N 44 70 24 38 999.6 999.6 0.0
21/03:38pm 29.8 20.5 2.9 18 13.6 NNW 41 61 22 33 999.3 999.3 0.0
21/03:33pm 30.4 17.6 2.6 17 14.0 N 59 83 32 45 999.0 999.0 0.0
21/03:30pm 30.5 17.0 2.7 17 14.0 N 63 80 34 43 999.0 999.0 0.0
21/03:29pm 30.6 16.7 2.8 17 14.0 N 65 80 35 43 999.0 999.0 0.0
21/03:00pm 29.6 20.0 4.3 20 13.1 N 44 74 24 40 999.4 999.4 0.0
21/02:31pm 29.7 19.0 4.4 20 13.0 N 50 70 27 38 999.7 999.7 0.0
21/02:30pm 29.8 18.5 3.7 19 13.3 N 52 70 28 38 999.7 999.7 0.0
21/02:00pm 30.2 19.0 4.0 19 13.5 NNW 52 70 28 38 999.7 999.7 0.0
21/01:46pm 30.6 18.6 3.6 18 13.9 N 56 85 30 46 999.9 999.9 0.0
21/01:30pm 30.7 21.1 4.4 19 13.6 NNW 44 65 24 35 1000.2 1000.2 0.0
21/01:00pm 30.3 19.1 4.1 19 13.5 N 52 78 28 42 1000.9 1000.9 0.0
21/12:30pm 29.8 19.3 3.7 19 13.3 N 48 78 26 42 1001.5 1001.5 0.0
21/12:00pm 29.7 21.2 5.1 21 12.9 N 39 63 21 34 1002.7 1002.7 0.0
21/11:30am 31.6 25.4 8.0 23 13.0 N 30 50 16 27 1003.6 1003.6 0.0
21/11:29am 31.7 25.9 8.0 23 13.1 N 28 50 15 27 1003.5 1003.5 0.0
21/11:00am 27.8 20.5 5.4 24 11.6 N 33 46 18 25 1004.5 1004.5 0.0
21/10:30am 27.4 20.7 5.6 25 11.3 N 30 44 16 24 1005.3 1005.3 0.0
21/10:00am 26.9 21.1 6.3 27 10.8 N 26 39 14 21 1006.0 1006.0 0.0
21/09:30am 25.8 21.3 5.9 28 10.3 N 19 30 10 16 1006.9 1006.9 0.0
21/09:00am 27.0 22.4 8.0 30 10.3 NNE 22 32 12 17 1007.5 1007.5 0.0
21/08:30am 24.8 22.8 8.7 36 8.7 NNE 9 15 5 8 1008.4 1008.4 0.0
21/08:00am 21.9 19.2 9.1 44 6.8 NNE 13 19 7 10 1008.6 1008.6 0.0
21/07:30am 19.7 16.3 7.8 46 6.1 NNE 15 20 8 11 1009.3 1009.3 0.0
21/07:00am 16.6 13.9 7.3 54 4.6 NNE 11 13 6 7 1009.5 1009.5 0.0
21/06:30am 14.6 11.7 6.4 58 4.0 NNE 11 15 6 8 1009.4 1009.4 0.0
21/06:00am 14.2 10.8 6.1 58 3.9 NNE 13 17 7 9 1009.4 1009.4 0.0
21/05:30am 15.3 11.1 5.8 53 4.6 NNE 17 22 9 12 1009.3 1009.3 0.0
21/05:00am 15.0 11.2 6.0 55 4.3 NNE 15 20 8 11 1009.5 1009.5 0.0
21/04:30am 15.3 11.2 6.1 54 4.4 NNE 17 20 9 11 1009.6 1009.6 0.0
21/04:00am 15.4 12.1 6.2 54 4.5 NE 13 17 7 9 1010.0 1010.0 0.0
21/03:30am 13.5 10.4 3.8 52 4.4 NE 9 13 5 7 1010.3 1010.3 0.0
21/03:00am 14.2 11.2 3.9 50 4.7 NNE 9 13 5 7 1010.7 1010.7 0.0
21/02:30am 15.6 13.0 4.3 47 5.3 N 7 7 4 4 1010.9 1010.9 0.0
21/02:00am 17.1 14.1 4.1 42 6.1 N 9 15 5 8 1011.2 1011.2 0.0
21/01:30am 18.1 14.2 3.6 38 6.8 N 13 17 7 9 1011.4 1011.4 0.0
21/01:00am 19.6 14.9 3.3 34 7.7 N 17 26 9 14 1011.5 1011.5 0.0
21/12:30am 20.5 14.9 3.3 32 8.1 N 22 30 12 16 1010.9 1010.9 0.0
21/12:00am 18.6 13.5 2.9 35 7.3 N 19 28 10 15 1010.6 1010.6 0.0
 
Date/Time
WST
Temp
°C
App
Temp
°C
Dew
Point
Rel
Hum
%
Delta-T
°C
Wind Press
QNH
hPa
Press
MSL
hPa
Rain
since 9 am
mm
Dir
 
Spd
km/h
Gust
km/h
Spd
kts
Gust
kts
20/11:30pm 18.3 13.3 3.4 37 7.0 NNE 19 28 10 15 1009.3 1009.3 0.0
20/11:00pm 17.5 13.0 4.1 41 6.3 NNE 17 24 9 13 1009.7 1009.7 0.0
20/10:30pm 17.3 12.5 4.9 44 5.9 NNE 19 24 10 13 1010.2 1010.2 0.0
20/10:00pm 15.9 11.6 5.2 49 5.1 NE 17 20 9 11 1010.8 1010.8 0.0
20/09:30pm 15.0 10.7 5.2 52 4.6 NNE 17 19 9 10 1011.4 1011.4 0.0
20/09:00pm 14.9 10.9 5.1 52 4.6 NNE 15 19 8 10 1011.7 1011.7 0.0
20/08:30pm 14.9 11.2 6.2 56 4.2 NE 15 20 8 11 1012.1 1012.1 0.0
20/08:00pm 14.7 11.8 9.7 72 2.6 NE 15 17 8 9 1012.2 1012.2 0.0
20/07:30pm 15.7 13.2 11.1 74 2.5 ENE 15 17 8 9 1012.2 1012.2 0.0
20/07:00pm 16.9 14.8 11.2 69 3.1 ENE 13 19 7 10 1012.1 1012.1 0.0
20/06:30pm 18.9 17.9 12.4 66 3.6 ENE 9 15 5 8 1011.8 1011.8 0.0
20/06:00pm 19.6 17.6 10.0 54 5.1 E 11 15 6 8 1011.8 1011.8 0.0
20/05:43pm 19.7 18.0 11.2 58 4.7 ESE 11 19 6 10 1011.7 1011.7 0.0
20/05:30pm 24.7 23.0 11.3 43 7.6 NE 11 19 6 10 1011.6 1011.6 0.0
20/05:00pm 27.8 23.5 5.4 24 11.6 NNE 17 24 9 13 1011.7 1011.7 0.0
20/04:30pm 28.6 22.9 4.8 22 12.2 N 24 37 13 20 1011.9 1011.9 0.0
20/04:00pm 29.1 23.8 5.2 22 12.4 N 22 35 12 19 1012.1 1012.1 0.0
20/03:30pm 29.2 23.0 6.0 23 12.2 N 28 44 15 24 1012.4 1012.4 0.0
20/03:00pm 28.2 22.7 5.7 24 11.7 NNE 24 39 13 21 1012.6 1012.6 0.0
20/02:30pm 29.2 23.6 7.2 25 11.8 NE 26 37 14 20 1013.0 1013.0 0.0
20/02:00pm 27.8 22.7 7.6 28 10.9 NNE 24 39 13 21 1013.4 1013.4 0.0
20/01:30pm 26.6 21.7 7.1 29 10.3 NE 22 37 12 20 1014.0 1014.0 0.0
20/01:00pm 25.9 20.4 7.5 31 9.8 NNE 26 35 14 19 1014.8 1014.8 0.0
20/12:30pm 24.9 19.9 8.0 34 9.0 NNE 24 37 13 20 1015.5 1015.4 0.0
20/12:00pm 25.5 20.3 8.9 35 9.0 NNE 26 35 14 19 1016.1 1016.0 0.0
20/11:30am 23.6 18.5 7.7 36 8.4 NNE 24 37 13 20 1016.7 1016.6 0.0
20/11:00am 22.2 16.6 7.2 38 7.7 NNE 26 41 14 22 1017.4 1017.3 0.0
20/10:30am 21.7 16.9 7.5 40 7.4 NNE 22 33 12 18 1018.2 1018.1 0.0
20/10:00am 22.1 18.1 10.3 47 6.4 NNE 22 35 12 19 1018.8 1018.7 0.0
20/09:30am 20.2 16.4 11.1 56 5.0 NNE 22 32 12 17 1019.4 1019.3 0.0
20/09:00am 17.7 14.7 13.6 77 2.3 NE 22 32 12 17 1019.9 1019.8 0.2
20/08:30am 15.8 13.5 15.8 100 0.0 NE 22 30 12 16 1020.4 1020.3 0.2
20/08:00am 13.9 11.5 13.9 100 0.0 NE 19 26 10 14 1020.7 1020.7 0.0
20/07:30am 12.1 9.5 12.1 100 0.0 NE 17 24 9 13 1021.0 1021.0 0.0
20/07:00am 9.8 7.3 9.8 100 0.0 NE 13 17 7 9 1021.3 1021.3 0.0
20/06:30am 8.7 4.8 8.7 100 0.0 NE 19 20 10 11 1021.0 1021.0 0.0
20/06:00am 8.4 4.4 8.4 100 0.0 NE 19 22 10 12 1021.0 1021.0 0.0
20/05:30am 8.4 5.2 8.4 100 0.0 NE 15 17 8 9 1021.3 1021.3 0.0
20/05:00am 8.4 5.9 8.4 100 0.0 NE 11 13 6 7 1021.5 1021.5 0.0
20/04:30am 9.1 7.2 9.1 100 0.0 NE 9 11 5 6 1021.5 1021.5 0.0
20/04:00am 9.1 7.2 9.1 100 0.0 NNE 9 11 5 6 1021.4 1021.4 0.0
20/03:30am 8.9 7.0 8.9 100 0.0 NNE 9 11 5 6 1021.4 1021.4 0.0
20/03:00am 9.2 7.0 9.2 100 0.0 NNE 11 15 6 8 1021.4 1021.4 0.0
20/02:30am 9.3 6.7 9.3 100 0.0 NNE 13 15 7 8 1021.5 1021.5 0.0
20/02:00am 9.1 7.2 9.1 100 0.0 NNE 9 13 5 7 1021.6 1021.6 0.0
20/01:30am 8.9 7.0 8.9 100 0.0 NE 9 13 5 7 1021.8 1021.8 0.0
20/01:00am 9.0 6.7 9.0 100 0.0 NE 11 13 6 7 1022.0 1022.0 0.0
20/12:30am 6.7 4.2 6.7 100 0.0 NE 9 13 5 7 1022.3 1022.3 0.0
20/12:00am 6.6 4.1 6.6 100 0.0 NE 9 11 5 6 1022.5 1022.5 0.0
 
Date/Time
WST
Temp
°C
App
Temp
°C
Dew
Point
Rel
Hum
%
Delta-T
°C
Wind Press
QNH
hPa
Press
MSL
hPa
Rain
since 9 am
mm
Dir
 
Spd
km/h
Gust
km/h
Spd
kts
Gust
kts
19/11:30pm 6.7 4.2 6.7 100 0.0 NE 9 11 5 6 1022.6 1022.6 0.0
19/11:00pm 7.5 5.6 7.5 100 0.0 NE 7 9 4 5 1022.9 1022.9 0.0
19/10:30pm 7.7 5.8 7.7 100 0.0 NE 7 9 4 5 1023.0 1023.0 0.0
19/10:00pm 8.2 6.1 8.2 100 0.0 ENE 9 9 5 5 1023.3 1023.3 0.0
19/09:30pm 8.7 6.7 8.7 100 0.0 ENE 9 9 5 5 1023.5 1023.5 0.0
19/09:00pm 9.2 7.7 9.2 100 0.0 ENE 7 7 4 4 1023.6 1023.6 0.0
19/08:30pm 10.1 8.8 10.1 100 0.0 ENE 7 9 4 5 1023.3 1023.3 0.0
19/08:00pm 10.9 10.1 10.9 100 0.0 ENE 6 7 3 4 1023.2 1023.2 0.0
19/07:30pm 12.5 12.0 12.5 100 0.0 E 7 11 4 6 1023.1 1023.1 0.0
19/07:00pm 12.6 11.6 12.3 98 0.2 E 9 13 5 7 1022.6 1022.6 0.0
19/06:30pm 13.0 12.0 12.4 96 0.3 ESE 9 15 5 8 1022.2 1022.2 0.0
19/06:00pm 13.2 12.1 12.1 93 0.6 ESE 9 15 5 8 1022.1 1022.1 0.0
19/05:30pm 14.1 12.7 12.1 88 1.1 ESE 11 17 6 9 1021.8 1021.8 0.0
19/05:00pm 14.9 13.1 12.0 83 1.6 SE 13 19 7 10 1021.6 1021.6 0.0
19/04:30pm 15.4 13.2 12.2 81 1.7 SSE 15 20 8 11 1021.6 1021.6 0.0
19/04:00pm 15.7 13.6 12.3 80 1.9 SSE 15 20 8 11 1021.5 1021.5 0.0
19/03:30pm 15.9 13.1 12.5 80 1.9 SSE 19 22 10 12 1021.1 1021.1 0.0
19/03:00pm 16.6 13.9 12.9 79 2.1 S 19 24 10 13 1021.1 1021.1 0.0
19/02:30pm 16.5 13.8 13.0 80 2.0 S 19 24 10 13 1021.1 1021.1 0.0
19/02:00pm 17.4 15.0 13.9 80 2.0 S 19 26 10 14 1021.0 1021.0 0.0
19/01:30pm 16.6 14.3 14.6 88 1.1 S 20 26 11 14 1021.0 1021.0 0.0
19/01:00pm 16.8 14.6 14.4 86 1.4 S 19 24 10 13 1021.1 1021.1 0.0
19/12:30pm 17.5 15.6 15.3 87 1.3 SSW 19 26 10 14 1021.4 1021.4 0.0
19/12:00pm 17.1 15.9 15.1 88 1.2 SW 15 20 8 11 1021.6 1021.6 0.0
19/11:30am 16.6 14.8 14.4 87 1.3 SW 17 24 9 13 1021.8 1021.8 0.0
19/11:00am 16.2 13.9 14.2 88 1.1 SW 19 24 10 13 1022.0 1022.0 0.0
19/10:30am 16.4 14.0 14.4 88 1.1 SW 20 26 11 14 1021.9 1021.9 0.0
19/10:00am 15.9 13.4 14.1 89 1.0 SW 20 28 11 15 1021.8 1021.8 0.0
19/09:30am 15.4 12.9 13.6 89 1.0 SW 19 26 10 14 1021.7 1021.7 0.0
19/09:00am 15.2 13.0 13.4 89 1.0 WSW 17 22 9 12 1021.5 1021.5 0.2
19/08:30am 14.9 14.1 13.9 94 0.6 WSW 11 19 6 10 1021.7 1021.7 0.2
19/08:00am 14.2 14.1 13.9 98 0.2 WNW 7 13 4 7 1021.3 1021.3 0.2
19/07:30am 13.6 13.4 13.6 100 0.0 WNW 7 13 4 7 1021.2 1021.2 0.2
19/07:00am 13.1 11.2 13.1 100 0.0 WSW 15 24 8 13 1020.9 1020.9 0.2
19/06:30am 12.5 10.1 12.5 100 0.0 SW 17 26 9 14 1020.7 1020.7 0.2
19/06:00am 10.1 9.0 10.1 100 0.0 WNW 6 11 3 6 1020.3 1020.2 0.2
19/05:30am 10.8 9.4 10.8 100 0.0 W 9 11 5 6 1019.6 1019.5 0.2
19/05:00am 11.9 10.4 11.9 100 0.0 W 11 20 6 11 1019.3 1019.2 0.2
19/04:30am 11.2 10.3 11.2 100 0.0 W 7 11 4 6 1018.8 1018.7 0.0
19/04:00am 12.3 10.9 12.3 100 0.0 WSW 11 15 6 8 1018.3 1018.2 0.0
19/03:30am 12.8 10.8 12.8 100 0.0 WSW 15 20 8 11 1018.3 1018.2 0.0
19/03:00am 13.0 12.2 13.0 100 0.0 WSW 9 17 5 9 1018.1 1018.0 0.0
19/02:30am 13.9 12.7 13.9 100 0.0 WSW 13 20 7 11 1018.2 1018.1 0.0
19/02:00am 13.6 12.3 13.6 100 0.0 WSW 13 20 7 11 1018.0 1017.9 0.0
19/01:30am 13.6 11.9 13.6 100 0.0 WSW 15 20 8 11 1017.9 1017.8 0.0
19/01:00am 13.3 11.5 13.3 100 0.0 WSW 15 20 8 11 1017.7 1017.6 0.0
19/12:30am 13.4 11.2 13.4 100 0.0 WSW 17 22 9 12 1017.4 1017.3 0.0
19/12:00am 13.3 11.5 13.3 100 0.0 WSW 15 20 8 11 1017.3 1017.2 0.0
 
Date/Time
WST
Temp
°C
App
Temp
°C
Dew
Point
Rel
Hum
%
Delta-T
°C
Wind Press
QNH
hPa
Press
MSL
hPa
Rain
since 9 am
mm
Dir
 
Spd
km/h
Gust
km/h
Spd
kts
Gust
kts
18/11:30pm 13.8 11.4 13.8 100 0.0 WSW 19 24 10 13 1016.9 1016.8 0.0
18/11:00pm 13.9 12.3 13.9 100 0.0 WSW 15 22 8 12 1016.9 1016.8 0.0
18/10:30pm 13.9 12.3 13.9 100 0.0 SW 15 20 8 11 1016.7 1016.6 0.0
18/10:00pm 14.0 11.5 14.0 100 0.0 SW 20 28 11 15 1016.6 1016.5 0.0
18/09:30pm 14.5 12.3 14.5 100 0.0 SW 19 30 10 16 1016.5 1016.4 0.0
18/09:00pm 14.5 12.1 14.5 100 0.0 SW 20 26 11 14 1016.3 1016.2 0.0
18/08:30pm 14.2 12.7 14.2 100 0.0 SW 15 20 8 11 1016.0 1015.9 0.0
18/08:00pm 14.0 12.8 14.0 100 0.0 SW 13 17 7 9 1015.7 1015.6 0.0
18/07:30pm 13.7 13.2 13.7 100 0.0 WSW 9 11 5 6 1015.5 1015.4 0.0
18/07:00pm 14.0 13.6 14.0 100 0.0 ESE 9 11 5 6 1014.8 1014.8 0.0
18/06:30pm 14.3 14.5 14.3 100 0.0 SE 6 7 3 4 1014.8 1014.8 0.0
18/06:00pm 14.9 14.0 14.9 100 0.0 ESE 13 17 7 9 1014.3 1014.3 0.0
18/05:30pm 15.3 14.0 14.7 96 0.3 SE 15 20 8 11 1014.2 1014.2 0.0
18/05:00pm 17.0 15.3 14.6 86 1.4 SE 17 26 9 14 1014.1 1014.1 0.0
18/04:30pm 17.4 14.8 13.3 77 2.3 SE 19 28 10 15 1014.0 1014.0 0.0

Other Formats:

Comma delimited format used in spreadsheet applications
http://www.bom.gov.au/fwo/IDW60801/IDW60801.95635.axf

JavaScript Object Notation format (JSON) in row-major order
http://www.bom.gov.au/fwo/IDW60801/IDW60801.95635.json